sensor_id;sensor_type;location;lat;lon;timestamp;temperature;humidity
39695;DHT22;25367;-35.352;149.036;2022-10-16T00:01:42;24.50;44.80
39695;DHT22;25367;-35.352;149.036;2022-10-16T00:04:12;24.50;44.80
39695;DHT22;25367;-35.352;149.036;2022-10-16T00:06:44;24.60;44.90
39695;DHT22;25367;-35.352;149.036;2022-10-16T00:09:14;24.60;44.70
39695;DHT22;25367;-35.352;149.036;2022-10-16T00:11:44;24.30;45.40
39695;DHT22;25367;-35.352;149.036;2022-10-16T00:14:15;23.90;46.20
39695;DHT22;25367;-35.352;149.036;2022-10-16T00:16:45;23.70;46.80
39695;DHT22;25367;-35.352;149.036;2022-10-16T00:19:15;23.40;47.30
39695;DHT22;25367;-35.352;149.036;2022-10-16T00:21:46;23.60;47.10
39695;DHT22;25367;-35.352;149.036;2022-10-16T00:24:16;24.10;45.90
39695;DHT22;25367;-35.352;149.036;2022-10-16T00:26:46;24.20;45.50
39695;DHT22;25367;-35.352;149.036;2022-10-16T00:29:18;24.30;45.20
39695;DHT22;25367;-35.352;149.036;2022-10-16T00:31:47;24.50;45.10
39695;DHT22;25367;-35.352;149.036;2022-10-16T00:34:17;24.50;45.00
39695;DHT22;25367;-35.352;149.036;2022-10-16T00:36:49;24.50;44.90
39695;DHT22;25367;-35.352;149.036;2022-10-16T00:39:19;24.50;44.90
39695;DHT22;25367;-35.352;149.036;2022-10-16T00:41:49;24.50;44.80
39695;DHT22;25367;-35.352;149.036;2022-10-16T00:44:44;24.60;44.80
39695;DHT22;25367;-35.352;149.036;2022-10-16T00:47:19;24.60;44.70
39695;DHT22;25367;-35.352;149.036;2022-10-16T00:49:50;24.60;44.70
39695;DHT22;25367;-35.352;149.036;2022-10-16T00:52:23;24.40;44.80
39695;DHT22;25367;-35.352;149.036;2022-10-16T00:54:53;24.20;45.40
39695;DHT22;25367;-35.352;149.036;2022-10-16T00:57:24;24.00;45.70
39695;DHT22;25367;-35.352;149.036;2022-10-16T00:59:54;24.20;45.50
39695;DHT22;25367;-35.352;149.036;2022-10-16T01:02:24;24.60;44.80
39695;DHT22;25367;-35.352;149.036;2022-10-16T01:04:54;24.70;44.60
39695;DHT22;25367;-35.352;149.036;2022-10-16T01:07:34;24.80;44.40
39695;DHT22;25367;-35.352;149.036;2022-10-16T01:10:16;24.70;44.30
39695;DHT22;25367;-35.352;149.036;2022-10-16T01:12:53;24.40;45.00
39695;DHT22;25367;-35.352;149.036;2022-10-16T01:15:29;24.20;45.60
39695;DHT22;25367;-35.352;149.036;2022-10-16T01:18:03;24.10;45.80
39695;DHT22;25367;-35.352;149.036;2022-10-16T01:20:37;24.40;45.40
39695;DHT22;25367;-35.352;149.036;2022-10-16T01:23:20;24.70;44.70
39695;DHT22;25367;-35.352;149.036;2022-10-16T01:26:10;24.80;44.50
39695;DHT22;25367;-35.352;149.036;2022-10-16T01:28:46;24.80;44.40
39695;DHT22;25367;-35.352;149.036;2022-10-16T01:31:20;24.80;44.40
39695;DHT22;25367;-35.352;149.036;2022-10-16T01:33:56;24.90;45.00
39695;DHT22;25367;-35.352;149.036;2022-10-16T01:36:32;24.80;44.40
39695;DHT22;25367;-35.352;149.036;2022-10-16T01:39:04;24.90;44.40
39695;DHT22;25367;-35.352;149.036;2022-10-16T01:41:40;24.90;44.40
39695;DHT22;25367;-35.352;149.036;2022-10-16T01:44:16;24.90;44.40
39695;DHT22;25367;-35.352;149.036;2022-10-16T01:46:49;24.90;44.30
39695;DHT22;25367;-35.352;149.036;2022-10-16T01:49:19;24.90;44.30
39695;DHT22;25367;-35.352;149.036;2022-10-16T01:51:54;24.90;44.30
39695;DHT22;25367;-35.352;149.036;2022-10-16T01:54:28;24.90;44.30
39695;DHT22;25367;-35.352;149.036;2022-10-16T01:56:56;24.90;44.40
39695;DHT22;25367;-35.352;149.036;2022-10-16T01:59:31;24.90;44.40
39695;DHT22;25367;-35.352;149.036;2022-10-16T02:02:09;24.90;44.40
39695;DHT22;25367;-35.352;149.036;2022-10-16T02:04:42;24.90;44.40
39695;DHT22;25367;-35.352;149.036;2022-10-16T02:07:13;24.90;44.40
39695;DHT22;25367;-35.352;149.036;2022-10-16T02:09:43;25.00;44.30
39695;DHT22;25367;-35.352;149.036;2022-10-16T02:12:15;25.00;44.30
39695;DHT22;25367;-35.352;149.036;2022-10-16T02:14:50;24.90;44.40
39695;DHT22;25367;-35.352;149.036;2022-10-16T02:17:19;24.80;44.70
39695;DHT22;25367;-35.352;149.036;2022-10-16T02:19:50;24.70;44.70
39695;DHT22;25367;-35.352;149.036;2022-10-16T02:22:26;24.90;44.60
39695;DHT22;25367;-35.352;149.036;2022-10-16T02:24:59;25.00;44.30
39695;DHT22;25367;-35.352;149.036;2022-10-16T02:27:34;25.00;44.30
39695;DHT22;25367;-35.352;149.036;2022-10-16T02:30:13;25.00;44.40
39695;DHT22;25367;-35.352;149.036;2022-10-16T02:32:44;24.90;44.60
39695;DHT22;25367;-35.352;149.036;2022-10-16T02:35:14;24.90;44.50
39695;DHT22;25367;-35.352;149.036;2022-10-16T02:37:46;25.00;44.50
39695;DHT22;25367;-35.352;149.036;2022-10-16T02:40:16;24.90;44.50
39695;DHT22;25367;-35.352;149.036;2022-10-16T02:42:49;24.90;44.50
39695;DHT22;25367;-35.352;149.036;2022-10-16T02:45:22;24.90;44.50
39695;DHT22;25367;-35.352;149.036;2022-10-16T02:47:52;24.90;44.60
39695;DHT22;25367;-35.352;149.036;2022-10-16T02:50:21;24.90;44.60
39695;DHT22;25367;-35.352;149.036;2022-10-16T02:52:51;24.90;44.60
39695;DHT22;25367;-35.352;149.036;2022-10-16T02:55:20;25.00;44.50
39695;DHT22;25367;-35.352;149.036;2022-10-16T02:57:49;24.90;44.40
39695;DHT22;25367;-35.352;149.036;2022-10-16T03:00:21;24.90;44.50
39695;DHT22;25367;-35.352;149.036;2022-10-16T03:02:50;24.90;44.60
39695;DHT22;25367;-35.352;149.036;2022-10-16T03:05:20;24.90;44.70
39695;DHT22;25367;-35.352;149.036;2022-10-16T03:07:49;24.90;44.70
39695;DHT22;25367;-35.352;149.036;2022-10-16T03:10:19;24.90;44.70
39695;DHT22;25367;-35.352;149.036;2022-10-16T03:12:48;24.90;44.70
39695;DHT22;25367;-35.352;149.036;2022-10-16T03:15:19;25.00;44.50
39695;DHT22;25367;-35.352;149.036;2022-10-16T03:17:49;25.10;44.40
39695;DHT22;25367;-35.352;149.036;2022-10-16T03:20:18;25.10;44.40
39695;DHT22;25367;-35.352;149.036;2022-10-16T03:22:47;25.10;44.30
39695;DHT22;25367;-35.352;149.036;2022-10-16T03:25:17;25.10;44.30
39695;DHT22;25367;-35.352;149.036;2022-10-16T03:27:46;25.10;44.40
39695;DHT22;25367;-35.352;149.036;2022-10-16T03:30:16;25.10;44.50
39695;DHT22;25367;-35.352;149.036;2022-10-16T03:32:47;25.20;44.50
39695;DHT22;25367;-35.352;149.036;2022-10-16T03:35:17;25.10;44.40
39695;DHT22;25367;-35.352;149.036;2022-10-16T03:37:50;25.10;44.50
39695;DHT22;25367;-35.352;149.036;2022-10-16T03:40:21;25.10;44.40
39695;DHT22;25367;-35.352;149.036;2022-10-16T03:42:51;25.20;44.40
39695;DHT22;25367;-35.352;149.036;2022-10-16T03:45:22;25.20;44.50
39695;DHT22;25367;-35.352;149.036;2022-10-16T03:47:56;25.20;44.50
39695;DHT22;25367;-35.352;149.036;2022-10-16T03:50:25;25.20;44.20
39695;DHT22;25367;-35.352;149.036;2022-10-16T03:52:55;25.20;44.20
39695;DHT22;25367;-35.352;149.036;2022-10-16T03:55:26;25.10;44.30
39695;DHT22;25367;-35.352;149.036;2022-10-16T03:57:56;25.10;44.50
39695;DHT22;25367;-35.352;149.036;2022-10-16T04:00:26;25.00;44.70
39695;DHT22;25367;-35.352;149.036;2022-10-16T04:03:00;25.00;44.80
39695;DHT22;25367;-35.352;149.036;2022-10-16T04:05:30;25.00;44.80
39695;DHT22;25367;-35.352;149.036;2022-10-16T04:08:00;25.00;44.90
39695;DHT22;25367;-35.352;149.036;2022-10-16T04:10:30;25.00;45.10
39695;DHT22;25367;-35.352;149.036;2022-10-16T04:13:00;25.00;45.10
39695;DHT22;25367;-35.352;149.036;2022-10-16T04:15:30;25.00;45.10
39695;DHT22;25367;-35.352;149.036;2022-10-16T04:18:02;25.10;44.90
39695;DHT22;25367;-35.352;149.036;2022-10-16T04:20:33;25.00;44.90
39695;DHT22;25367;-35.352;149.036;2022-10-16T04:23:03;25.00;45.00
39695;DHT22;25367;-35.352;149.036;2022-10-16T04:25:32;25.00;45.00
39695;DHT22;25367;-35.352;149.036;2022-10-16T04:28:03;25.00;45.20
39695;DHT22;25367;-35.352;149.036;2022-10-16T04:30:33;24.90;45.20
39695;DHT22;25367;-35.352;149.036;2022-10-16T04:33:05;25.00;45.20
39695;DHT22;25367;-35.352;149.036;2022-10-16T04:35:35;25.00;45.30
39695;DHT22;25367;-35.352;149.036;2022-10-16T04:38:05;25.00;45.30
39695;DHT22;25367;-35.352;149.036;2022-10-16T04:40:35;25.00;45.20
39695;DHT22;25367;-35.352;149.036;2022-10-16T04:43:05;25.00;45.20
39695;DHT22;25367;-35.352;149.036;2022-10-16T04:45:36;25.00;45.20
39695;DHT22;25367;-35.352;149.036;2022-10-16T04:48:08;25.00;45.10
39695;DHT22;25367;-35.352;149.036;2022-10-16T04:50:38;25.00;45.10
39695;DHT22;25367;-35.352;149.036;2022-10-16T04:53:08;25.10;45.10
39695;DHT22;25367;-35.352;149.036;2022-10-16T04:55:38;25.10;45.10
39695;DHT22;25367;-35.352;149.036;2022-10-16T04:58:09;25.00;45.10
39695;DHT22;25367;-35.352;149.036;2022-10-16T05:00:39;25.00;45.20
39695;DHT22;25367;-35.352;149.036;2022-10-16T05:03:12;25.00;45.10
39695;DHT22;25367;-35.352;149.036;2022-10-16T05:05:44;25.00;45.20
39695;DHT22;25367;-35.352;149.036;2022-10-16T05:08:18;25.00;45.30
39695;DHT22;25367;-35.352;149.036;2022-10-16T05:10:48;25.00;45.20
39695;DHT22;25367;-35.352;149.036;2022-10-16T05:13:18;25.00;45.20
39695;DHT22;25367;-35.352;149.036;2022-10-16T05:15:49;25.10;45.20
39695;DHT22;25367;-35.352;149.036;2022-10-16T05:18:22;25.10;45.10
39695;DHT22;25367;-35.352;149.036;2022-10-16T05:20:52;25.10;45.00
39695;DHT22;25367;-35.352;149.036;2022-10-16T05:23:24;25.10;45.00
39695;DHT22;25367;-35.352;149.036;2022-10-16T05:25:54;25.10;45.10
39695;DHT22;25367;-35.352;149.036;2022-10-16T05:28:25;25.20;45.10
39695;DHT22;25367;-35.352;149.036;2022-10-16T05:30:56;25.10;45.10
39695;DHT22;25367;-35.352;149.036;2022-10-16T05:33:31;25.10;45.00
39695;DHT22;25367;-35.352;149.036;2022-10-16T05:36:03;25.20;45.00
39695;DHT22;25367;-35.352;149.036;2022-10-16T05:38:33;25.20;44.90
39695;DHT22;25367;-35.352;149.036;2022-10-16T05:41:03;25.20;44.90
39695;DHT22;25367;-35.352;149.036;2022-10-16T05:43:34;25.20;44.90
39695;DHT22;25367;-35.352;149.036;2022-10-16T05:46:05;25.10;44.80
39695;DHT22;25367;-35.352;149.036;2022-10-16T05:48:36;25.20;44.90
39695;DHT22;25367;-35.352;149.036;2022-10-16T05:51:07;25.20;44.90
39695;DHT22;25367;-35.352;149.036;2022-10-16T05:53:39;25.20;44.90
39695;DHT22;25367;-35.352;149.036;2022-10-16T05:56:11;25.20;44.90
39695;DHT22;25367;-35.352;149.036;2022-10-16T05:58:41;25.20;44.90
39695;DHT22;25367;-35.352;149.036;2022-10-16T06:01:13;25.10;44.80
39695;DHT22;25367;-35.352;149.036;2022-10-16T06:03:46;25.20;45.00
39695;DHT22;25367;-35.352;149.036;2022-10-16T06:06:17;25.20;45.10
39695;DHT22;25367;-35.352;149.036;2022-10-16T06:08:48;25.20;45.10
39695;DHT22;25367;-35.352;149.036;2022-10-16T06:11:20;25.20;45.00
39695;DHT22;25367;-35.352;149.036;2022-10-16T06:13:52;25.20;44.90
39695;DHT22;25367;-35.352;149.036;2022-10-16T06:16:22;25.20;44.90
39695;DHT22;25367;-35.352;149.036;2022-10-16T06:18:55;25.20;44.90
39695;DHT22;25367;-35.352;149.036;2022-10-16T06:21:26;25.20;44.90
39695;DHT22;25367;-35.352;149.036;2022-10-16T06:23:57;25.20;44.90
39695;DHT22;25367;-35.352;149.036;2022-10-16T06:26:29;25.20;44.90
39695;DHT22;25367;-35.352;149.036;2022-10-16T06:29:00;25.20;44.90
39695;DHT22;25367;-35.352;149.036;2022-10-16T06:31:31;25.20;44.90
39695;DHT22;25367;-35.352;149.036;2022-10-16T06:34:04;25.10;44.90
39695;DHT22;25367;-35.352;149.036;2022-10-16T06:36:34;25.10;45.00
39695;DHT22;25367;-35.352;149.036;2022-10-16T06:39:04;25.10;45.00
39695;DHT22;25367;-35.352;149.036;2022-10-16T06:41:35;25.10;45.00
39695;DHT22;25367;-35.352;149.036;2022-10-16T06:44:17;25.20;45.30
39695;DHT22;25367;-35.352;149.036;2022-10-16T06:46:47;25.20;44.90
39695;DHT22;25367;-35.352;149.036;2022-10-16T06:49:19;25.30;45.00
39695;DHT22;25367;-35.352;149.036;2022-10-16T06:51:49;25.20;44.90
39695;DHT22;25367;-35.352;149.036;2022-10-16T06:54:19;25.20;44.90
39695;DHT22;25367;-35.352;149.036;2022-10-16T06:56:49;25.20;44.90
39695;DHT22;25367;-35.352;149.036;2022-10-16T06:59:20;25.20;44.90
39695;DHT22;25367;-35.352;149.036;2022-10-16T07:01:50;25.20;44.90
39695;DHT22;25367;-35.352;149.036;2022-10-16T07:04:23;25.30;45.00
39695;DHT22;25367;-35.352;149.036;2022-10-16T07:06:53;25.20;44.90
39695;DHT22;25367;-35.352;149.036;2022-10-16T07:09:23;25.30;45.00
39695;DHT22;25367;-35.352;149.036;2022-10-16T07:11:53;25.30;45.00
39695;DHT22;25367;-35.352;149.036;2022-10-16T07:14:22;25.30;45.00
39695;DHT22;25367;-35.352;149.036;2022-10-16T07:16:52;25.30;45.00
39695;DHT22;25367;-35.352;149.036;2022-10-16T07:19:23;25.30;44.90
39695;DHT22;25367;-35.352;149.036;2022-10-16T07:21:53;25.30;44.90
39695;DHT22;25367;-35.352;149.036;2022-10-16T07:24:23;25.30;45.40
39695;DHT22;25367;-35.352;149.036;2022-10-16T07:26:53;25.30;44.80
39695;DHT22;25367;-35.352;149.036;2022-10-16T07:29:22;25.40;45.50
39695;DHT22;25367;-35.352;149.036;2022-10-16T07:31:52;25.30;44.80
39695;DHT22;25367;-35.352;149.036;2022-10-16T07:34:23;25.40;44.80
39695;DHT22;25367;-35.352;149.036;2022-10-16T07:36:53;25.40;44.70
39695;DHT22;25367;-35.352;149.036;2022-10-16T07:39:23;25.40;44.80
39695;DHT22;25367;-35.352;149.036;2022-10-16T07:41:52;25.40;44.70
39695;DHT22;25367;-35.352;149.036;2022-10-16T07:44:22;25.40;44.70
39695;DHT22;25367;-35.352;149.036;2022-10-16T07:46:51;25.40;44.70
39695;DHT22;25367;-35.352;149.036;2022-10-16T07:49:22;25.40;44.70
39695;DHT22;25367;-35.352;149.036;2022-10-16T07:51:52;25.40;44.70
39695;DHT22;25367;-35.352;149.036;2022-10-16T07:54:21;25.40;44.60
39695;DHT22;25367;-35.352;149.036;2022-10-16T07:56:51;25.40;44.70
39695;DHT22;25367;-35.352;149.036;2022-10-16T07:59:20;25.40;44.70
39695;DHT22;25367;-35.352;149.036;2022-10-16T08:01:50;25.40;44.70
39695;DHT22;25367;-35.352;149.036;2022-10-16T08:04:19;25.40;44.70
39695;DHT22;25367;-35.352;149.036;2022-10-16T08:06:51;25.40;44.80
39695;DHT22;25367;-35.352;149.036;2022-10-16T08:09:20;25.40;44.80
39695;DHT22;25367;-35.352;149.036;2022-10-16T08:11:50;25.40;44.70
39695;DHT22;25367;-35.352;149.036;2022-10-16T08:14:19;25.40;44.70
39695;DHT22;25367;-35.352;149.036;2022-10-16T08:16:49;25.40;44.70
39695;DHT22;25367;-35.352;149.036;2022-10-16T08:19:18;25.40;44.60
39695;DHT22;25367;-35.352;149.036;2022-10-16T08:21:52;25.40;44.60
39695;DHT22;25367;-35.352;149.036;2022-10-16T08:24:22;25.40;44.60
39695;DHT22;25367;-35.352;149.036;2022-10-16T08:26:53;25.30;45.40
39695;DHT22;25367;-35.352;149.036;2022-10-16T08:29:22;25.30;45.20
39695;DHT22;25367;-35.352;149.036;2022-10-16T08:31:52;25.30;45.20
39695;DHT22;25367;-35.352;149.036;2022-10-16T08:34:21;25.40;45.00
39695;DHT22;25367;-35.352;149.036;2022-10-16T08:36:54;25.30;45.00
39695;DHT22;25367;-35.352;149.036;2022-10-16T08:39:23;25.30;45.00
39695;DHT22;25367;-35.352;149.036;2022-10-16T08:42:09;25.30;45.20
39695;DHT22;25367;-35.352;149.036;2022-10-16T08:48:02;25.40;45.90
39695;DHT22;25367;-35.352;149.036;2022-10-16T08:50:33;25.40;45.20
39695;DHT22;25367;-35.352;149.036;2022-10-16T08:53:09;25.40;45.30
39695;DHT22;25367;-35.352;149.036;2022-10-16T08:55:45;25.40;45.60
39695;DHT22;25367;-35.352;149.036;2022-10-16T08:58:16;25.50;45.50
39695;DHT22;25367;-35.352;149.036;2022-10-16T09:00:47;25.40;45.10
39695;DHT22;25367;-35.352;149.036;2022-10-16T09:03:28;25.40;46.00
39695;DHT22;25367;-35.352;149.036;2022-10-16T09:06:09;25.30;45.70
39695;DHT22;25367;-35.352;149.036;2022-10-16T09:08:51;25.40;45.40
39695;DHT22;25367;-35.352;149.036;2022-10-16T09:11:26;25.30;45.30
39695;DHT22;25367;-35.352;149.036;2022-10-16T09:14:05;25.40;45.30
39695;DHT22;25367;-35.352;149.036;2022-10-16T09:16:38;25.50;45.30
39695;DHT22;25367;-35.352;149.036;2022-10-16T09:19:15;25.50;45.30
39695;DHT22;25367;-35.352;149.036;2022-10-16T09:21:47;25.60;46.20
39695;DHT22;25367;-35.352;149.036;2022-10-16T09:24:19;25.60;45.40
39695;DHT22;25367;-35.352;149.036;2022-10-16T09:26:49;25.60;45.50
39695;DHT22;25367;-35.352;149.036;2022-10-16T09:29:24;25.70;45.50
39695;DHT22;25367;-35.352;149.036;2022-10-16T09:31:54;25.70;45.60
39695;DHT22;25367;-35.352;149.036;2022-10-16T09:34:29;25.60;45.60
39695;DHT22;25367;-35.352;149.036;2022-10-16T09:37:00;25.70;45.60
39695;DHT22;25367;-35.352;149.036;2022-10-16T09:39:42;25.70;45.70
39695;DHT22;25367;-35.352;149.036;2022-10-16T09:42:14;25.70;45.50
39695;DHT22;25367;-35.352;149.036;2022-10-16T09:44:48;25.80;45.60
39695;DHT22;25367;-35.352;149.036;2022-10-16T09:47:20;25.80;45.60
39695;DHT22;25367;-35.352;149.036;2022-10-16T09:49:53;25.80;45.60
39695;DHT22;25367;-35.352;149.036;2022-10-16T09:52:21;25.80;45.50
39695;DHT22;25367;-35.352;149.036;2022-10-16T09:54:54;25.90;45.40
39695;DHT22;25367;-35.352;149.036;2022-10-16T09:57:24;25.90;45.40
39695;DHT22;25367;-35.352;149.036;2022-10-16T09:59:55;25.90;45.40
39695;DHT22;25367;-35.352;149.036;2022-10-16T10:02:30;25.80;45.90
39695;DHT22;25367;-35.352;149.036;2022-10-16T10:05:00;25.80;45.30
39695;DHT22;25367;-35.352;149.036;2022-10-16T10:07:32;25.80;45.30
39695;DHT22;25367;-35.352;149.036;2022-10-16T10:10:05;25.90;45.40
39695;DHT22;25367;-35.352;149.036;2022-10-16T10:12:44;25.90;45.40
39695;DHT22;25367;-35.352;149.036;2022-10-16T10:15:14;25.90;45.40
39695;DHT22;25367;-35.352;149.036;2022-10-16T10:17:48;25.90;45.40
39695;DHT22;25367;-35.352;149.036;2022-10-16T10:20:25;26.00;45.40
39695;DHT22;25367;-35.352;149.036;2022-10-16T10:22:55;26.00;45.30
39695;DHT22;25367;-35.352;149.036;2022-10-16T10:25:37;26.00;45.30
39695;DHT22;25367;-35.352;149.036;2022-10-16T10:28:42;26.00;45.40
39695;DHT22;25367;-35.352;149.036;2022-10-16T10:31:20;26.00;45.40
39695;DHT22;25367;-35.352;149.036;2022-10-16T10:33:52;26.00;45.40
39695;DHT22;25367;-35.352;149.036;2022-10-16T10:36:28;26.00;45.50
39695;DHT22;25367;-35.352;149.036;2022-10-16T10:38:59;26.00;45.60
39695;DHT22;25367;-35.352;149.036;2022-10-16T10:44:54;26.10;45.50
39695;DHT22;25367;-35.352;149.036;2022-10-16T10:47:31;26.10;45.50
39695;DHT22;25367;-35.352;149.036;2022-10-16T10:50:12;26.10;45.50
39695;DHT22;25367;-35.352;149.036;2022-10-16T10:52:58;26.00;45.50
39695;DHT22;25367;-35.352;149.036;2022-10-16T10:55:39;25.90;45.80
39695;DHT22;25367;-35.352;149.036;2022-10-16T10:58:42;26.00;45.70
39695;DHT22;25367;-35.352;149.036;2022-10-16T11:01:15;26.00;45.80
39695;DHT22;25367;-35.352;149.036;2022-10-16T11:04:10;25.90;45.80
39695;DHT22;25367;-35.352;149.036;2022-10-16T11:06:46;25.90;46.00
39695;DHT22;25367;-35.352;149.036;2022-10-16T11:09:19;25.80;46.00
39695;DHT22;25367;-35.352;149.036;2022-10-16T11:11:52;25.80;46.00
39695;DHT22;25367;-35.352;149.036;2022-10-16T11:14:25;25.80;46.00
39695;DHT22;25367;-35.352;149.036;2022-10-16T11:16:58;25.90;46.00
39695;DHT22;25367;-35.352;149.036;2022-10-16T11:19:35;25.80;46.00
39695;DHT22;25367;-35.352;149.036;2022-10-16T11:22:15;25.90;46.20
39695;DHT22;25367;-35.352;149.036;2022-10-16T11:24:50;25.90;45.90
39695;DHT22;25367;-35.352;149.036;2022-10-16T11:27:25;26.00;45.90
39695;DHT22;25367;-35.352;149.036;2022-10-16T11:29:59;26.00;45.80
39695;DHT22;25367;-35.352;149.036;2022-10-16T11:32:33;25.90;45.80
39695;DHT22;25367;-35.352;149.036;2022-10-16T11:35:11;25.90;45.80
39695;DHT22;25367;-35.352;149.036;2022-10-16T11:37:45;25.90;45.90
39695;DHT22;25367;-35.352;149.036;2022-10-16T11:40:22;25.80;45.90
39695;DHT22;25367;-35.352;149.036;2022-10-16T11:42:57;25.90;45.70
39695;DHT22;25367;-35.352;149.036;2022-10-16T11:45:39;25.80;45.70
39695;DHT22;25367;-35.352;149.036;2022-10-16T11:48:17;25.80;45.80
39695;DHT22;25367;-35.352;149.036;2022-10-16T11:50:52;25.80;45.60
39695;DHT22;25367;-35.352;149.036;2022-10-16T11:53:34;25.70;45.80
39695;DHT22;25367;-35.352;149.036;2022-10-16T11:56:08;25.80;45.80
39695;DHT22;25367;-35.352;149.036;2022-10-16T11:58:46;25.80;45.80
39695;DHT22;25367;-35.352;149.036;2022-10-16T12:01:26;25.80;45.70
39695;DHT22;25367;-35.352;149.036;2022-10-16T12:04:06;25.90;45.80
39695;DHT22;25367;-35.352;149.036;2022-10-16T12:06:42;25.80;45.80
39695;DHT22;25367;-35.352;149.036;2022-10-16T12:09:19;25.80;45.90
39695;DHT22;25367;-35.352;149.036;2022-10-16T12:11:49;25.80;45.90
39695;DHT22;25367;-35.352;149.036;2022-10-16T12:14:36;25.70;45.90
39695;DHT22;25367;-35.352;149.036;2022-10-16T12:17:25;25.80;46.00
39695;DHT22;25367;-35.352;149.036;2022-10-16T12:20:12;25.80;45.90
39695;DHT22;25367;-35.352;149.036;2022-10-16T12:22:50;25.90;45.90
39695;DHT22;25367;-35.352;149.036;2022-10-16T12:25:23;25.90;45.80
39695;DHT22;25367;-35.352;149.036;2022-10-16T12:28:03;25.90;45.90
39695;DHT22;25367;-35.352;149.036;2022-10-16T12:30:35;25.90;46.00
39695;DHT22;25367;-35.352;149.036;2022-10-16T12:33:16;26.00;46.10
39695;DHT22;25367;-35.352;149.036;2022-10-16T12:35:48;25.90;46.00
39695;DHT22;25367;-35.352;149.036;2022-10-16T12:38:19;25.90;46.00
39695;DHT22;25367;-35.352;149.036;2022-10-16T12:40:58;25.90;46.10
39695;DHT22;25367;-35.352;149.036;2022-10-16T12:43:46;25.90;46.10
39695;DHT22;25367;-35.352;149.036;2022-10-16T12:46:39;25.80;46.10
39695;DHT22;25367;-35.352;149.036;2022-10-16T12:49:30;25.90;46.10
39695;DHT22;25367;-35.352;149.036;2022-10-16T12:52:00;25.90;46.00
39695;DHT22;25367;-35.352;149.036;2022-10-16T12:54:34;25.90;46.50
39695;DHT22;25367;-35.352;149.036;2022-10-16T12:57:27;25.90;46.00
39695;DHT22;25367;-35.352;149.036;2022-10-16T13:00:04;25.90;46.00
39695;DHT22;25367;-35.352;149.036;2022-10-16T13:03:20;25.80;46.00
39695;DHT22;25367;-35.352;149.036;2022-10-16T13:06:07;25.80;46.10
39695;DHT22;25367;-35.352;149.036;2022-10-16T13:09:02;25.80;46.00
39695;DHT22;25367;-35.352;149.036;2022-10-16T13:17:40;25.80;45.90
39695;DHT22;25367;-35.352;149.036;2022-10-16T13:20:18;25.80;45.90
39695;DHT22;25367;-35.352;149.036;2022-10-16T13:23:01;25.80;45.90
39695;DHT22;25367;-35.352;149.036;2022-10-16T13:25:42;25.80;45.90
39695;DHT22;25367;-35.352;149.036;2022-10-16T13:28:14;25.80;45.90
39695;DHT22;25367;-35.352;149.036;2022-10-16T13:30:50;25.80;46.00
39695;DHT22;25367;-35.352;149.036;2022-10-16T13:33:24;25.70;46.10
39695;DHT22;25367;-35.352;149.036;2022-10-16T13:35:56;25.60;46.20
39695;DHT22;25367;-35.352;149.036;2022-10-16T13:38:29;25.70;46.20
39695;DHT22;25367;-35.352;149.036;2022-10-16T13:41:00;25.60;46.20
39695;DHT22;25367;-35.352;149.036;2022-10-16T13:43:33;25.70;46.20
39695;DHT22;25367;-35.352;149.036;2022-10-16T13:46:04;25.60;46.20
39695;DHT22;25367;-35.352;149.036;2022-10-16T13:48:34;25.60;46.10
39695;DHT22;25367;-35.352;149.036;2022-10-16T13:51:11;25.70;46.10
39695;DHT22;25367;-35.352;149.036;2022-10-16T13:53:43;25.70;46.20
39695;DHT22;25367;-35.352;149.036;2022-10-16T13:56:15;25.60;46.20
39695;DHT22;25367;-35.352;149.036;2022-10-16T13:58:44;25.70;46.20
39695;DHT22;25367;-35.352;149.036;2022-10-16T14:01:18;25.60;46.30
39695;DHT22;25367;-35.352;149.036;2022-10-16T14:03:49;25.60;46.30
39695;DHT22;25367;-35.352;149.036;2022-10-16T14:06:21;25.60;46.30
39695;DHT22;25367;-35.352;149.036;2022-10-16T14:08:59;25.60;46.20
39695;DHT22;25367;-35.352;149.036;2022-10-16T14:11:30;25.60;46.20
39695;DHT22;25367;-35.352;149.036;2022-10-16T14:13:59;25.60;46.30
39695;DHT22;25367;-35.352;149.036;2022-10-16T14:16:30;25.70;46.30
39695;DHT22;25367;-35.352;149.036;2022-10-16T14:19:01;25.60;46.20
39695;DHT22;25367;-35.352;149.036;2022-10-16T14:21:31;25.60;46.20
39695;DHT22;25367;-35.352;149.036;2022-10-16T14:24:11;25.60;46.10
39695;DHT22;25367;-35.352;149.036;2022-10-16T14:26:43;25.60;46.20
39695;DHT22;25367;-35.352;149.036;2022-10-16T14:29:15;25.60;46.30
39695;DHT22;25367;-35.352;149.036;2022-10-16T14:31:56;25.60;46.30
39695;DHT22;25367;-35.352;149.036;2022-10-16T14:34:27;25.60;46.40
39695;DHT22;25367;-35.352;149.036;2022-10-16T14:36:57;25.60;46.40
39695;DHT22;25367;-35.352;149.036;2022-10-16T14:39:29;25.70;47.00
39695;DHT22;25367;-35.352;149.036;2022-10-16T14:41:59;25.70;46.40
39695;DHT22;25367;-35.352;149.036;2022-10-16T14:44:31;25.70;46.30
39695;DHT22;25367;-35.352;149.036;2022-10-16T14:47:09;25.70;46.40
39695;DHT22;25367;-35.352;149.036;2022-10-16T14:49:42;25.70;46.30
39695;DHT22;25367;-35.352;149.036;2022-10-16T14:52:12;25.70;46.30
39695;DHT22;25367;-35.352;149.036;2022-10-16T14:54:43;25.70;46.30
39695;DHT22;25367;-35.352;149.036;2022-10-16T14:57:18;25.70;46.30
39695;DHT22;25367;-35.352;149.036;2022-10-16T14:59:49;25.70;46.40
39695;DHT22;25367;-35.352;149.036;2022-10-16T15:02:25;25.70;46.30
39695;DHT22;25367;-35.352;149.036;2022-10-16T15:04:56;25.70;46.30
39695;DHT22;25367;-35.352;149.036;2022-10-16T15:07:26;25.60;46.40
39695;DHT22;25367;-35.352;149.036;2022-10-16T15:09:57;25.60;46.40
39695;DHT22;25367;-35.352;149.036;2022-10-16T15:12:27;25.70;46.30
39695;DHT22;25367;-35.352;149.036;2022-10-16T15:14:56;25.70;46.30
39695;DHT22;25367;-35.352;149.036;2022-10-16T15:17:25;25.70;46.20
39695;DHT22;25367;-35.352;149.036;2022-10-16T15:19:55;25.70;46.20
39695;DHT22;25367;-35.352;149.036;2022-10-16T15:22:24;25.70;46.20
39695;DHT22;25367;-35.352;149.036;2022-10-16T15:24:55;25.70;46.20
39695;DHT22;25367;-35.352;149.036;2022-10-16T15:27:25;25.70;46.20
39695;DHT22;25367;-35.352;149.036;2022-10-16T15:29:54;25.70;46.20
39695;DHT22;25367;-35.352;149.036;2022-10-16T15:32:24;25.60;46.30
39695;DHT22;25367;-35.352;149.036;2022-10-16T15:34:53;25.60;46.40
39695;DHT22;25367;-35.352;149.036;2022-10-16T15:37:22;25.50;46.50